Lumby, Canada
Current Conditions -  °F | °C
As of 2:50 AM on Sunday 26 Oct 2014 (Local Time) from CYLW Reporting Station
Overcast Overcast  
Wind Chill: 50°   Ceiling: 5000
Heat Index: 50°   Visibility: 9mi
Dew Point: 46°   Wind: 3mph
Humidity: 87%   Direction: 200°SSW
Pressure: 29.51"   Gusts: NA
Location:  50.25°N, 118.97°W
Report Text: CYLW 260950Z AUTO 20003KT 100V250 9SM FEW042 BKN050 BKN060 OVC110 10/08 A2951 RMK PRESRR SLP000 DENSITY ALT 1600FT
Loading
Personal Weather Stations






























Interactive Weather Map
Tropical Storm Tracking
New forecast layout! Learn more

10-Day Weather Forecast

Advertisements
Track Severe Weather on mobile